Time;durP1;ratioP1;P1;durP2;ratioP2;P2;SDS_P1;SDS_P2;PMS_P1;PMS_P2;Temp;Humidity;BMP_temperature;BMP_pressure;BME280_temperature;BME280_humidity;BME280_pressure;Samples;Min_cycle;Max_cycle;Signal;HPM_P1;HPM_P2
2022/01/06 00:00:13;;;;;;;16.45;3.20;;;;;;;1.98;93.54;101453.50;4979403;28;20039;-75
2022/01/06 00:02:38;;;;;;;14.38;3.15;;;;;;;1.95;93.61;101453.56;4985485;28;20109;-77
2022/01/06 00:05:04;;;;;;;13.25;2.40;;;;;;;1.91;93.70;101451.94;4986002;28;20034;-74
2022/01/06 00:07:30;;;;;;;12.07;2.30;;;;;;;1.88;93.81;101461.84;4986452;28;20123;-73
2022/01/06 00:09:56;;;;;;;14.60;2.58;;;;;;;1.86;94.17;101469.91;4976245;28;20383;-75
2022/01/06 00:12:27;;;;;;;14.32;2.83;;;;;;;1.84;94.05;101468.22;4983822;28;20038;-74
2022/01/06 00:18:09;;;;;;;9.45;1.85;;;;;;;1.76;94.46;101468.41;4980865;28;20487;-76
2022/01/06 00:23:29;;;;;;;20.10;2.70;;;;;;;1.73;94.61;101468.50;4987415;28;20046;-75
2022/01/06 00:25:57;;;;;;;9.63;2.15;;;;;;;1.72;94.68;101478.31;4984369;28;20030;-77
2022/01/06 00:28:23;;;;;;;13.93;2.15;;;;;;;1.69;94.56;101477.53;4983031;28;20395;-75
2022/01/06 00:30:49;;;;;;;26.30;2.75;;;;;;;1.66;94.45;101473.13;4979564;28;20028;-75
2022/01/06 00:33:14;;;;;;;16.90;3.17;;;;;;;1.63;94.52;101477.69;4982026;28;20030;-74
2022/01/06 00:35:40;;;;;;;10.88;2.72;;;;;;;1.60;94.46;101478.66;4984391;28;20061;-77
2022/01/06 00:38:07;;;;;;;15.07;2.42;;;;;;;1.55;94.59;101475.22;4976608;28;20443;-75
2022/01/06 00:40:33;;;;;;;16.08;2.97;;;;;;;1.58;94.50;101484.97;4969357;28;20034;-76
2022/01/06 00:42:58;;;;;;;17.00;3.63;;;;;;;1.59;94.96;101484.06;4975662;28;20026;-74
2022/01/06 00:45:24;;;;;;;22.13;3.72;;;;;;;1.60;95.07;101492.06;4984017;28;20142;-75
2022/01/06 00:47:49;;;;;;;19.85;3.13;;;;;;;1.57;94.80;101499.28;4986958;28;20112;-77
2022/01/06 00:50:14;;;;;;;9.45;2.80;;;;;;;1.59;94.82;101494.78;4987326;28;20050;-77
2022/01/06 00:52:40;;;;;;;10.02;2.92;;;;;;;1.51;94.47;101481.56;4984661;28;20386;-77
2022/01/06 00:55:06;;;;;;;10.95;3.20;;;;;;;1.57;95.00;101491.25;4980499;28;20026;-76
2022/01/06 00:57:31;;;;;;;22.05;3.22;;;;;;;1.56;94.75;101501.09;4986170;28;20224;-73
2022/01/06 00:59:56;;;;;;;17.00;2.70;;;;;;;1.55;94.33;101504.72;4979314;28;20081;-77
2022/01/06 01:02:22;;;;;;;13.13;2.92;;;;;;;1.55;94.41;101498.47;4975647;28;20074;-75
2022/01/06 01:04:47;;;;;;;10.27;3.10;;;;;;;1.52;94.23;101500.28;4977697;28;20062;-76
2022/01/06 01:07:13;;;;;;;15.15;2.58;;;;;;;1.52;94.34;101494.03;4984184;28;20037;-76
2022/01/06 01:09:38;;;;;;;17.20;3.30;;;;;;;1.52;94.25;101494.03;4987270;28;20022;-74
2022/01/06 01:12:04;;;;;;;11.15;2.72;;;;;;;1.51;94.30;101501.22;4986698;28;20030;-77
2022/01/06 01:14:33;;;;;;;14.57;3.20;;;;;;;1.50;94.42;101507.50;4981964;28;20050;-75
2022/01/06 01:17:01;;;;;;;10.30;2.42;;;;;;;1.48;93.97;101495.91;4981959;28;20050;-74
2022/01/06 01:19:29;;;;;;;18.02;3.15;;;;;;;1.48;94.19;101498.59;4973209;28;20101;-75
2022/01/06 01:21:55;;;;;;;13.57;2.80;;;;;;;1.46;94.18;101497.78;4978394;28;20026;-74
2022/01/06 01:24:21;;;;;;;15.13;3.05;;;;;;;1.43;93.98;101496.94;4977520;28;20391;-75
2022/01/06 01:26:47;;;;;;;21.20;3.78;;;;;;;1.40;94.07;101499.69;4976640;28;20489;-76
2022/01/06 01:29:18;;;;;;;13.95;3.00;;;;;;;1.38;94.05;101502.44;4986698;28;20041;-77
2022/01/06 01:31:50;;;;;;;19.40;3.03;;;;;;;1.34;94.22;101503.41;4978091;28;20058;-76
2022/01/06 01:34:21;;;;;;;10.63;2.70;;;;;;;1.31;94.24;101508.00;4978882;28;20062;-76
2022/01/06 01:36:47;;;;;;;13.10;2.40;;;;;;;1.31;94.57;101516.03;4984634;28;20105;-75
2022/01/06 01:39:13;;;;;;;16.17;3.78;;;;;;;1.27;94.65;101510.72;4989590;28;20037;-75
2022/01/06 01:41:38;;;;;;;19.33;3.03;;;;;;;1.26;94.41;101510.78;4981119;28;20034;-74
2022/01/06 01:44:11;;;;;;;20.38;3.17;;;;;;;1.23;94.35;101521.56;4987584;28;20046;-75
2022/01/06 01:46:42;;;;;;;;;;;;;;;1.23;93.71;101527.78;4976320;28;20030;-75
2022/01/06 01:49:16;;;;;;;6.20;2.20;;;;;;;1.18;94.19;101524.34;4984145;28;19914;-77
2022/01/06 01:51:43;;;;;;;9.18;2.50;;;;;;;1.16;94.25;101536.88;4988524;28;20077;-75
2022/01/06 01:54:08;;;;;;;12.57;2.33;;;;;;;1.13;94.60;101547.69;4989469;28;20486;-76
2022/01/06 01:56:34;;;;;;;11.13;2.42;;;;;;;1.12;94.44;101545.00;4987683;28;20030;-74
2022/01/06 01:58:59;;;;;;;16.15;2.38;;;;;;;1.11;94.46;101551.28;4990575;28;20062;-74
2022/01/06 02:01:24;;;;;;;16.90;3.47;;;;;;;1.09;94.84;101554.03;4984886;28;20108;-76
2022/01/06 02:03:50;;;;;;;11.45;2.63;;;;;;;1.09;94.70;101551.34;4985141;28;20058;-76
2022/01/06 02:06:15;;;;;;;18.20;2.78;;;;;;;1.11;94.64;101564.69;4987893;28;20380;-75
2022/01/06 02:08:40;;;;;;;16.80;2.67;;;;;;;1.09;94.45;101561.19;4982841;28;20030;-75
2022/01/06 02:11:06;;;;;;;12.40;2.55;;;;;;;1.07;94.56;101563.88;4981092;28;20559;-74
2022/01/06 02:13:31;;;;;;;20.02;2.80;;;;;;;1.02;94.36;101563.09;4989457;28;20113;-75
2022/01/06 02:15:59;;;;;;;15.27;3.28;;;;;;;0.99;94.51;101558.69;4984002;28;20126;-77
2022/01/06 02:18:25;;;;;;;15.82;3.05;;;;;;;0.99;94.74;101565.84;4988311;28;20537;-76
2022/01/06 02:20:51;;;;;;;14.05;2.75;;;;;;;0.95;94.71;101562.34;4983458;28;20088;-74
2022/01/06 02:23:17;;;;;;;7.70;2.28;;;;;;;0.94;94.51;101567.75;4990245;28;20057;-77
2022/01/06 02:25:43;;;;;;;20.33;2.65;;;;;;;0.96;94.89;101571.28;4986207;28;20026;-75
2022/01/06 02:28:09;;;;;;;8.65;2.08;;;;;;;0.93;95.03;101565.97;4989038;28;20387;-74
2022/01/06 02:30:36;;;;;;;14.38;2.63;;;;;;;0.93;94.86;101569.56;4981658;28;20039;-77
2022/01/06 02:33:04;;;;;;;19.65;2.97;;;;;;;0.92;94.88;101577.59;4990612;28;20026;-75
2022/01/06 02:35:31;;;;;;;17.05;3.17;;;;;;;0.88;94.24;101571.41;4977410;28;20501;-75
2022/01/06 02:37:57;;;;;;;15.85;2.33;;;;;;;0.84;94.38;101579.53;4984949;28;20031;-74
2022/01/06 02:40:24;;;;;;;14.38;4.05;;;;;;;0.83;94.55;101584.03;4981289;28;20034;-75
2022/01/06 02:42:52;;;;;;;8.85;1.98;;;;;;;0.79;94.37;101579.63;4981504;28;20033;-76
2022/01/06 02:45:20;;;;;;;7.93;2.40;;;;;;;0.74;94.19;101581.53;4982703;28;20031;-76
2022/01/06 02:47:47;;;;;;;8.50;2.42;;;;;;;0.66;93.80;101581.72;4981903;28;20034;-75
2022/01/06 02:50:13;;;;;;;9.00;2.00;;;;;;;0.62;94.04;101573.75;4987915;28;20548;-73
2022/01/06 02:52:39;;;;;;;8.68;1.85;;;;;;;0.60;93.90;101571.09;4988366;28;20051;-73
2022/01/06 02:55:06;;;;;;;9.90;2.50;;;;;;;0.52;93.58;101578.41;4978754;28;20031;-74
2022/01/06 02:57:31;;;;;;;15.82;2.22;;;;;;;0.50;94.24;101567.72;4981474;28;20037;-74
2022/01/06 02:59:56;;;;;;;12.38;2.40;;;;;;;0.46;94.29;101584.75;4985123;28;20073;-77
2022/01/06 03:02:22;;;;;;;8.20;2.88;;;;;;;0.43;94.21;101582.16;4980215;28;20467;-76
2022/01/06 03:04:47;;;;;;;16.90;2.83;;;;;;;0.42;94.41;101576.81;4975243;28;20031;-76
2022/01/06 03:07:12;;;;;;;11.55;2.67;;;;;;;0.42;94.54;101575.03;4976300;28;20434;-77
2022/01/06 03:09:39;;;;;;;11.82;2.28;;;;;;;0.43;94.14;101575.91;4986798;28;20080;-74
2022/01/06 03:12:18;;;;;;;18.13;3.35;;;;;;;0.43;94.35;101587.50;4987330;28;20045;-77
2022/01/06 03:14:43;;;;;;;14.30;3.10;;;;;;;0.44;94.57;101583.91;4986363;28;20050;-76
2022/01/06 03:17:08;;;;;;;14.98;2.65;;;;;;;0.43;94.61;101581.28;4979926;28;20080;-75
2022/01/06 03:19:33;;;;;;;17.15;2.40;;;;;;;0.46;94.94;101587.41;4979516;28;20089;-75
2022/01/06 03:21:59;;;;;;;11.85;2.58;;;;;;;0.47;94.86;101594.56;4981348;28;20428;-76
2022/01/06 03:24:24;;;;;;;10.82;2.47;;;;;;;0.45;94.42;101601.72;4987552;28;20622;-74
2022/01/06 03:26:49;;;;;;;10.85;2.88;;;;;;;0.47;94.86;101599.03;4983133;28;20037;-76
2022/01/06 03:29:15;;;;;;;14.00;3.05;;;;;;;0.45;94.88;101609.75;4984393;28;20379;-76
2022/01/06 03:31:40;;;;;;;16.05;3.08;;;;;;;0.47;94.84;101609.75;4977698;28;20454;-74
2022/01/06 03:34:05;;;;;;;15.52;2.33;;;;;;;0.48;94.94;101614.19;4980277;28;20069;-76
2022/01/06 03:36:30;;;;;;;20.10;2.70;;;;;;;0.46;94.86;101614.19;4986946;28;20030;-76
2022/01/06 03:38:56;;;;;;;8.02;3.00;;;;;;;0.44;94.96;101616.03;4973921;28;20119;-77
2022/01/06 03:41:21;;;;;;;11.93;2.65;;;;;;;0.47;95.01;101620.47;4985789;28;20175;-76
2022/01/06 03:43:46;;;;;;;6.05;1.88;;;;;;;0.49;94.76;101608.78;4975090;28;20471;-74
2022/01/06 03:46:12;;;;;;;19.48;2.88;;;;;;;0.54;94.99;101616.72;4978419;28;20026;-76
2022/01/06 03:48:37;;;;;;;15.90;2.10;;;;;;;0.60;95.27;101618.41;4985655;28;20189;-74
2022/01/06 03:51:02;;;;;;;22.77;2.47;;;;;;;0.66;95.20;101616.50;4983830;28;20033;-77
2022/01/06 03:53:28;;;;;;;18.40;2.50;;;;;;;0.69;95.06;101611.06;4985825;28;20354;-76
2022/01/06 03:55:53;;;;;;;11.10;2.15;;;;;;;0.75;94.92;101610.97;4992014;28;20036;-75
2022/01/06 03:58:18;;;;;;;17.52;2.80;;;;;;;0.80;94.88;101613.56;4977820;28;20196;-76
2022/01/06 04:00:43;;;;;;;9.35;2.40;;;;;;;0.84;94.75;101609.91;4969259;28;20039;-75
2022/01/06 04:03:09;;;;;;;8.82;2.90;;;;;;;0.84;94.92;101604.56;4972831;28;20535;-76
2022/01/06 04:05:34;;;;;;;12.38;2.42;;;;;;;0.89;94.49;101604.47;4976078;28;20038;-76
2022/01/06 04:08:00;;;;;;;13.25;2.17;;;;;;;0.86;94.70;101596.50;4985587;28;20118;-76
2022/01/06 04:10:25;;;;;;;14.20;2.30;;;;;;;0.88;94.54;101608.03;4984508;28;20030;-75
2022/01/06 04:12:51;;;;;;;17.23;3.20;;;;;;;0.86;94.19;101604.53;4972607;28;20413;-75
2022/01/06 04:15:16;;;;;;;14.45;2.72;;;;;;;0.81;94.33;101603.75;4986426;28;20038;-76
2022/01/06 04:17:43;;;;;;;8.60;2.40;;;;;;;0.76;94.18;101609.19;4975718;28;20161;-76
2022/01/06 04:20:10;;;;;;;7.55;2.22;;;;;;;0.73;94.27;101615.47;4978895;28;20034;-76
2022/01/06 04:22:36;;;;;;;6.63;2.47;;;;;;;0.66;94.05;101621.88;4977500;28;20035;-76
2022/01/06 04:25:01;;;;;;;11.70;2.08;;;;;;;0.66;94.24;101623.66;4980993;28;20034;-74
2022/01/06 04:27:26;;;;;;;15.90;4.07;;;;;;;0.66;94.50;101640.63;4984186;28;21097;-76
2022/01/06 04:29:52;;;;;;;14.95;2.20;;;;;;;0.62;94.43;101630.00;4973338;28;20475;-76
2022/01/06 04:32:17;;;;;;;11.70;1.95;;;;;;;0.62;94.40;101635.34;4981600;28;20538;-76
2022/01/06 04:34:42;;;;;;;18.30;2.15;;;;;;;0.62;94.58;101627.31;4983043;28;20076;-75
2022/01/06 04:37:07;;;;;;;16.92;3.25;;;;;;;0.62;94.34;101625.50;4986337;28;20462;-76
2022/01/06 04:39:33;;;;;;;22.02;2.72;;;;;;;0.58;94.54;101631.84;4988606;28;20030;-74
2022/01/06 04:41:58;;;;;;;11.90;2.47;;;;;;;0.57;94.41;101629.19;4975867;28;20486;-75
2022/01/06 04:44:23;;;;;;;10.88;2.60;;;;;;;0.53;94.29;101633.72;4976846;28;20030;-76
2022/01/06 04:46:49;;;;;;;9.95;1.92;;;;;;;0.49;94.00;101642.72;4987145;28;20026;-75
2022/01/06 04:49:14;;;;;;;12.57;2.38;;;;;;;0.45;94.18;101644.56;4976873;28;20125;-76
2022/01/06 04:51:39;;;;;;;17.55;2.58;;;;;;;0.46;94.65;101650.78;4976810;28;20034;-75
2022/01/06 04:54:06;;;;;;;15.10;2.90;;;;;;;0.46;94.61;101645.44;4988129;28;20025;-75
2022/01/06 04:56:37;;;;;;;21.63;2.88;;;;;;;0.46;94.75;101650.78;4987088;28;20088;-75
2022/01/06 04:59:04;;;;;;;13.15;2.22;;;;;;;0.46;94.69;101642.75;4977562;28;20100;-76
2022/01/06 05:01:30;;;;;;;9.52;1.98;;;;;;;0.47;94.90;101648.09;4982633;28;20161;-75
2022/01/06 05:03:55;;;;;;;10.60;2.03;;;;;;;0.45;94.76;101649.91;4983254;28;20118;-73
2022/01/06 05:06:20;;;;;;;15.68;2.15;;;;;;;0.48;94.31;101651.66;4981328;28;20034;-76
2022/01/06 05:08:46;;;;;;;17.00;2.90;;;;;;;0.47;94.92;101663.28;4986027;28;20558;-74
2022/01/06 05:11:11;;;;;;;15.77;2.42;;;;;;;0.44;94.42;101661.53;4979348;28;20042;-75
2022/01/06 05:13:36;;;;;;;11.63;2.10;;;;;;;0.43;94.43;101661.56;4987729;28;20033;-75
2022/01/06 05:16:03;;;;;;;11.77;3.33;;;;;;;0.41;94.54;101658.00;4993346;28;20038;-74
2022/01/06 05:18:28;;;;;;;12.90;2.38;;;;;;;0.35;94.63;101663.47;4992765;28;20030;-75
2022/01/06 05:20:54;;;;;;;24.15;2.40;;;;;;;0.37;94.58;101673.22;4981913;28;20030;-76
2022/01/06 05:23:19;;;;;;;6.57;1.95;;;;;;;0.34;94.76;101667.94;4982115;28;20066;-74
2022/01/06 05:25:45;;;;;;;11.63;2.05;;;;;;;0.32;94.51;101663.53;4989740;28;20859;-76
2022/01/06 05:28:10;;;;;;;9.70;2.13;;;;;;;0.34;94.45;101675.97;4986692;28;20118;-74
2022/01/06 05:30:35;;;;;;;23.70;2.85;;;;;;;0.29;94.36;101679.66;4981807;28;20026;-76
2022/01/06 05:33:01;;;;;;;12.52;2.47;;;;;;;0.23;94.15;101678.84;4988338;28;20032;-76
2022/01/06 05:35:26;;;;;;;18.27;2.45;;;;;;;0.20;93.90;101680.69;4988337;28;20031;-75
2022/01/06 05:37:51;;;;;;;14.27;2.65;;;;;;;0.17;94.20;101688.75;4993626;28;20017;-75
2022/01/06 05:40:17;;;;;;;16.42;2.47;;;;;;;0.13;94.35;101698.59;4992690;28;20125;-76
2022/01/06 05:42:42;;;;;;;12.32;2.15;;;;;;;0.10;94.34;101687.09;4987270;28;20026;-74
2022/01/06 05:45:09;;;;;;;12.07;2.40;;;;;;;0.07;94.09;101695.16;4981818;28;20030;-74
2022/01/06 05:47:34;;;;;;;12.43;2.17;;;;;;;0.02;93.84;101702.38;4980227;28;20058;-74
2022/01/06 05:49:59;;;;;;;7.00;1.98;;;;;;;-0.04;94.13;101700.69;4990976;28;20062;-76
2022/01/06 05:52:25;;;;;;;18.90;2.50;;;;;;;-0.11;94.24;101696.31;4993093;28;20502;-77
2022/01/06 05:54:50;;;;;;;13.63;1.85;;;;;;;-0.13;94.37;101701.69;4984107;28;20048;-74
2022/01/06 05:57:16;;;;;;;7.80;2.60;;;;;;;-0.17;94.34;101701.75;4991876;28;20113;-76
2022/01/06 05:59:41;;;;;;;12.65;2.40;;;;;;;-0.26;94.04;101709.00;4984959;28;20169;-76
2022/01/06 06:02:07;;;;;;;7.22;2.33;;;;;;;-0.26;94.28;101714.34;4980476;28;20076;-74
2022/01/06 06:04:33;;;;;;;7.90;1.95;;;;;;;-0.31;94.24;101708.19;4980914;28;20038;-74
2022/01/06 06:06:58;;;;;;;14.65;1.90;;;;;;;-0.33;94.06;101722.47;4993570;28;20018;-77
2022/01/06 06:09:23;;;;;;;9.43;1.85;;;;;;;-0.38;94.13;101716.28;4989928;28;20045;-76
2022/01/06 06:11:48;;;;;;;17.55;2.25;;;;;;;-0.41;94.29;101719.03;4992679;28;20018;-73
2022/01/06 06:14:14;;;;;;;13.75;2.15;;;;;;;-0.43;94.62;101721.69;4986074;28;20089;-76
2022/01/06 06:16:39;;;;;;;11.30;2.05;;;;;;;-0.44;94.67;101725.28;4978256;28;20034;-76
2022/01/06 06:19:05;;;;;;;17.67;2.25;;;;;;;-0.42;95.07;101734.19;4988133;28;20093;-77
2022/01/06 06:21:30;;;;;;;16.05;2.28;;;;;;;-0.43;94.87;101734.19;4986702;28;20050;-75
2022/01/06 06:23:55;;;;;;;9.07;2.45;;;;;;;-0.46;94.86;101731.56;4989064;28;20032;-77
2022/01/06 06:26:21;;;;;;;10.52;2.35;;;;;;;-0.46;94.78;101735.13;4982789;28;20406;-78
2022/01/06 06:28:46;;;;;;;8.02;2.22;;;;;;;-0.48;95.03;101736.91;4977249;28;20125;-75
2022/01/06 06:31:11;;;;;;;7.97;2.20;;;;;;;-0.48;94.63;101736.91;4987191;28;20116;-77
2022/01/06 06:33:36;;;;;;;16.15;2.67;;;;;;;-0.46;95.11;101742.25;4979285;28;20041;-77
2022/01/06 06:36:02;;;;;;;17.70;2.83;;;;;;;-0.45;95.32;101746.69;4988380;28;20026;-75
2022/01/06 06:38:27;;;;;;;8.00;3.25;;;;;;;-0.41;95.30;101749.31;4989148;28;20030;-75
2022/01/06 06:40:53;;;;;;;8.40;2.88;;;;;;;-0.41;95.13;101745.75;4987453;28;20121;-74
2022/01/06 06:43:18;;;;;;;8.13;2.65;;;;;;;-0.39;95.12;101746.59;4988218;28;20036;-75
2022/01/06 06:45:43;;;;;;;12.95;3.13;;;;;;;-0.40;95.21;101745.72;4985624;28;20512;-75
2022/01/06 06:48:10;;;;;;;17.33;2.70;;;;;;;-0.37;95.38;101756.41;4974934;28;20039;-76
2022/01/06 06:50:36;;;;;;;7.25;2.17;;;;;;;-0.38;94.88;101754.59;4987393;28;20430;-75
2022/01/06 06:53:02;;;;;;;15.10;3.65;;;;;;;-0.42;94.95;101755.56;4988657;28;20089;-75
2022/01/06 06:55:28;;;;;;;17.45;2.72;;;;;;;-0.42;94.72;101760.91;4989378;28;20076;-77
2022/01/06 06:57:53;;;;;;;15.80;2.85;;;;;;;-0.44;94.68;101770.72;4981674;28;20023;-76
2022/01/06 07:00:18;;;;;;;12.43;2.55;;;;;;;-0.45;94.87;101770.75;4984193;28;20042;-78
2022/01/06 07:02:44;;;;;;;10.10;2.88;;;;;;;-0.47;95.10;101769.88;4982035;28;20034;-76
2022/01/06 07:05:09;;;;;;;9.35;2.55;;;;;;;-0.46;95.22;101771.66;4980335;28;20042;-74
2022/01/06 07:07:35;;;;;;;15.90;2.78;;;;;;;-0.46;95.15;101769.00;4988077;28;20494;-79
2022/01/06 07:10:01;;;;;;;11.65;2.85;;;;;;;-0.42;95.53;101778.72;4989430;28;20030;-74
2022/01/06 07:12:26;;;;;;;16.95;3.03;;;;;;;-0.42;95.87;101778.72;4979987;28;20054;-79
2022/01/06 07:14:52;;;;;;;7.93;2.05;;;;;;;-0.43;95.11;101782.28;4984493;28;20057;-77
2022/01/06 07:17:17;;;;;;;9.98;2.65;;;;;;;-0.44;95.08;101789.44;4982658;28;20121;-75
2022/01/06 07:19:42;;;;;;;10.32;2.47;;;;;;;-0.46;95.04;101793.94;4977989;28;20030;-75
2022/01/06 07:22:08;;;;;;;9.45;2.30;;;;;;;-0.50;94.68;101799.31;4986884;28;20030;-76
2022/01/06 07:24:34;;;;;;;7.68;2.42;;;;;;;-0.54;94.68;101803.81;4987611;28;20077;-76
2022/01/06 07:27:00;;;;;;;6.25;2.80;;;;;;;-0.57;94.70;101807.38;4988798;28;20080;-74
2022/01/06 07:29:26;;;;;;;9.45;2.47;;;;;;;-0.58;94.93;101802.06;4984155;28;20046;-75
2022/01/06 07:31:52;;;;;;;15.75;3.03;;;;;;;-0.60;94.82;101802.09;4978616;28;20116;-75
2022/01/06 07:34:18;;;;;;;14.13;2.53;;;;;;;-0.60;94.92;101815.47;4980218;28;20486;-75
2022/01/06 07:36:43;;;;;;;14.15;2.55;;;;;;;-0.62;95.05;101811.91;4976626;28;20431;-78
2022/01/06 07:39:08;;;;;;;10.95;3.05;;;;;;;-0.63;94.86;101815.47;4980932;28;20022;-75
2022/01/06 07:41:34;;;;;;;9.50;2.38;;;;;;;-0.63;94.77;101819.94;4987378;28;20030;-74
2022/01/06 07:43:59;;;;;;;12.90;3.10;;;;;;;-0.65;94.77;101819.97;4980115;28;20038;-74
2022/01/06 07:46:24;;;;;;;11.52;2.35;;;;;;;-0.69;94.66;101812.88;4976602;28;20543;-78
2022/01/06 07:48:56;;;;;;;17.25;2.90;;;;;;;-0.70;94.64;101811.13;4980977;28;20026;-76
2022/01/06 07:51:28;;;;;;;7.07;2.10;;;;;;;-0.73;94.33;101811.13;4981998;28;20037;-75
2022/01/06 07:53:54;;;;;;;7.95;2.75;;;;;;;-0.79;94.46;101808.53;4981763;28;20490;-76
2022/01/06 07:56:20;;;;;;;10.00;2.88;;;;;;;-0.82;94.19;101814.78;4981758;28;20482;-76
2022/01/06 07:58:45;;;;;;;13.40;2.60;;;;;;;-0.84;94.32;101829.03;4980811;28;20037;-76
2022/01/06 08:01:12;;;;;;;9.18;2.55;;;;;;;-0.88;94.27;101825.53;4980339;28;20030;-76
2022/01/06 08:03:37;;;;;;;10.25;2.75;;;;;;;-0.91;94.38;101825.56;4984736;28;20038;-74
2022/01/06 08:06:03;;;;;;;13.82;2.33;;;;;;;-0.92;94.69;101823.78;4972265;28;20026;-76
2022/01/06 08:08:28;;;;;;;16.20;3.17;;;;;;;-0.94;94.72;101819.34;4980017;28;20034;-76
2022/01/06 08:10:53;;;;;;;9.15;2.50;;;;;;;-0.95;94.46;101823.81;4978919;28;20025;-75
2022/01/06 08:13:19;;;;;;;13.27;3.05;;;;;;;-0.95;94.86;101822.94;4977588;28;20034;-75
2022/01/06 08:15:44;;;;;;;10.95;2.78;;;;;;;-0.94;94.47;101822.03;4982339;28;20448;-76
2022/01/06 08:18:09;;;;;;;10.07;2.17;;;;;;;-0.96;94.84;101826.50;4978123;28;20031;-76
2022/01/06 08:20:38;;;;;;;6.65;2.35;;;;;;;-0.95;94.81;101833.63;4985183;28;20035;-77
2022/01/06 08:23:07;;;;;;;12.27;3.03;;;;;;;-0.92;94.71;101838.94;4975476;28;20030;-76
2022/01/06 08:25:33;;;;;;;12.32;2.88;;;;;;;-0.92;95.16;101834.47;4986471;28;20037;-76
2022/01/06 08:27:58;;;;;;;13.07;2.40;;;;;;;-0.90;95.01;101832.66;4984679;28;20030;-75
2022/01/06 08:30:23;;;;;;;12.30;3.80;;;;;;;-0.85;95.24;101845.97;4980051;28;20038;-77
2022/01/06 08:32:49;;;;;;;16.75;3.58;;;;;;;-0.83;95.79;101842.41;4988246;28;20040;-75
2022/01/06 08:35:14;;;;;;;18.77;3.25;;;;;;;-0.79;95.83;101837.94;4981034;28;20030;-76
2022/01/06 08:37:39;;;;;;;14.02;3.22;;;;;;;-0.74;95.80;101845.91;4987668;28;20032;-76
2022/01/06 08:40:05;;;;;;;20.50;3.72;;;;;;;-0.70;96.12;101835.16;4987606;28;20126;-75
2022/01/06 08:42:31;;;;;;;12.38;3.55;;;;;;;-0.62;96.21;101846.63;4969334;28;20062;-76
2022/01/06 08:44:56;;;;;;;19.50;3.75;;;;;;;-0.58;96.44;101848.38;4982749;28;20471;-76
2022/01/06 08:47:22;;;;;;;12.55;3.45;;;;;;;-0.51;96.53;101833.19;4986821;28;20502;-74
2022/01/06 08:49:47;;;;;;;12.60;3.53;;;;;;;-0.48;96.45;101848.28;4976577;28;20080;-76
2022/01/06 08:52:13;;;;;;;12.98;3.75;;;;;;;-0.42;96.52;101840.19;4983116;28;20026;-76
2022/01/06 08:54:38;;;;;;;18.95;4.30;;;;;;;-0.37;96.39;101847.28;4987068;28;21038;-76
2022/01/06 08:57:04;;;;;;;12.38;4.55;;;;;;;-0.34;96.44;101849.00;4986172;28;20033;-75
2022/01/06 08:59:29;;;;;;;14.68;3.90;;;;;;;-0.30;96.20;101850.75;4975088;28;20089;-75
2022/01/06 09:01:54;;;;;;;13.15;4.93;;;;;;;-0.27;96.60;101859.63;4974885;28;20026;-75
2022/01/06 09:04:20;;;;;;;21.15;4.63;;;;;;;-0.21;97.03;101858.66;4971026;28;20495;-74
2022/01/06 09:06:48;;;;;;;24.02;5.18;;;;;;;-0.16;96.88;101856.81;4985411;28;20022;-75
2022/01/06 09:09:13;;;;;;;16.48;4.78;;;;;;;-0.12;96.89;101860.34;4980604;28;20037;-76
2022/01/06 09:11:39;;;;;;;15.13;5.18;;;;;;;-0.04;96.62;101867.38;4983109;28;20027;-75
2022/01/06 09:14:05;;;;;;;15.40;4.95;;;;;;;-0.03;96.53;101870.94;4978650;28;20073;-77
2022/01/06 09:16:30;;;;;;;15.80;4.90;;;;;;;0.02;96.63;101866.41;4987161;28;20546;-75
2022/01/06 09:18:55;;;;;;;16.08;5.20;;;;;;;0.08;96.75;101873.47;4982930;28;20108;-77
2022/01/06 09:21:22;;;;;;;17.77;5.40;;;;;;;0.15;97.00;101876.06;4979795;28;20100;-73
2022/01/06 09:23:49;;;;;;;26.65;5.90;;;;;;;0.20;96.95;101882.25;4974727;28;20045;-75
2022/01/06 09:26:15;;;;;;;13.23;5.80;;;;;;;0.25;97.01;101875.03;4978644;28;20027;-75
2022/01/06 09:28:40;;;;;;;17.00;6.15;;;;;;;0.30;96.94;101883.00;4976046;28;20046;-73
2022/01/06 09:31:05;;;;;;;17.05;5.45;;;;;;;0.35;96.94;101878.47;4980556;28;20108;-74
2022/01/06 09:33:30;;;;;;;22.73;6.25;;;;;;;0.40;96.90;101887.31;4975979;28;20470;-75
2022/01/06 09:35:56;;;;;;;26.85;7.15;;;;;;;0.46;97.17;101884.53;4980540;28;20034;-74
2022/01/06 09:38:21;;;;;;;15.02;5.65;;;;;;;0.51;96.71;101897.88;4976213;28;20126;-74
2022/01/06 09:40:47;;;;;;;24.38;6.47;;;;;;;0.56;96.73;101892.44;4979774;28;20364;-74
2022/01/06 09:43:12;;;;;;;18.80;6.65;;;;;;;0.61;97.00;101891.50;4982787;28;20101;-74
2022/01/06 09:45:39;;;;;;;17.92;6.90;;;;;;;0.68;96.97;101898.50;4979808;28;20065;-76
2022/01/06 09:48:05;;;;;;;22.35;7.28;;;;;;;0.75;97.08;101899.34;4984579;28;20375;-75
2022/01/06 09:50:31;;;;;;;15.23;6.97;;;;;;;0.81;96.97;101895.66;4983453;28;20045;-74
2022/01/06 09:52:56;;;;;;;23.58;7.45;;;;;;;0.90;96.77;101891.06;4986849;28;20497;-75
2022/01/06 09:55:21;;;;;;;15.07;7.65;;;;;;;0.96;96.81;101896.31;4983019;28;20022;-74
2022/01/06 09:58:00;;;;;;;19.02;6.47;;;;;;;1.05;96.82;101894.38;4977453;28;20076;-74
2022/01/06 10:00:30;;;;;;;17.05;7.55;;;;;;;1.08;96.82;101892.56;4978491;28;20463;-75
2022/01/06 10:03:01;;;;;;;18.77;7.40;;;;;;;1.17;96.93;101900.44;4979375;28;20048;-77
2022/01/06 10:05:40;;;;;;;19.92;6.97;;;;;;;1.23;96.65;101899.44;4980688;28;20037;-74
2022/01/06 10:08:05;;;;;;;19.48;7.13;;;;;;;1.30;97.15;101893.06;4987497;28;20041;-74
2022/01/06 10:10:31;;;;;;;16.13;6.22;;;;;;;1.37;96.53;101893.84;4983736;28;20451;-77
2022/01/06 10:12:59;;;;;;;27.60;7.53;;;;;;;1.43;97.04;101902.66;4983615;28;20034;-77
2022/01/06 10:15:27;;;;;;;32.97;7.88;;;;;;;1.52;96.70;101904.28;4984692;28;20043;-75
2022/01/06 10:17:53;;;;;;;24.20;6.95;;;;;;;1.61;97.05;101896.09;4988570;28;20034;-76
2022/01/06 10:20:21;;;;;;;32.17;8.60;;;;;;;1.70;97.34;101898.59;4972939;28;20118;-74
2022/01/06 10:22:52;;;;;;;21.85;7.40;;;;;;;1.79;97.19;101900.22;4979721;28;20041;-74
2022/01/06 10:25:20;;;;;;;22.10;7.60;;;;;;;1.84;96.63;101897.44;4981801;28;20494;-75
2022/01/06 10:27:46;;;;;;;22.58;7.32;;;;;;;1.91;96.88;101886.59;4981364;28;20045;-74
2022/01/06 10:30:13;;;;;;;23.30;7.65;;;;;;;2.03;96.86;101891.69;4987368;28;20519;-75
2022/01/06 10:32:39;;;;;;;31.77;7.85;;;;;;;2.18;97.61;101884.22;4987201;28;20502;-73
2022/01/06 10:35:06;;;;;;;26.40;7.38;;;;;;;2.32;97.12;101887.50;4986967;28;20032;-77
2022/01/06 10:37:35;;;;;;;18.73;7.35;;;;;;;2.46;96.62;101885.41;4989861;28;20042;-74
2022/01/06 10:40:05;;;;;;;24.30;6.47;;;;;;;2.60;96.13;101886.91;4989034;28;20042;-76
2022/01/06 10:42:34;;;;;;;23.17;6.32;;;;;;;2.72;96.22;101894.69;4984455;28;20030;-76
2022/01/06 10:45:09;;;;;;;22.13;7.13;;;;;;;2.79;95.98;101891.78;4984856;28;20026;-74
2022/01/06 10:47:37;;;;;;;19.60;6.82;;;;;;;2.87;96.27;101883.56;4982244;28;20391;-75
2022/01/06 10:50:14;;;;;;;16.85;6.53;;;;;;;2.92;95.33;101881.66;4982939;28;20022;-76
2022/01/06 10:52:45;;;;;;;20.63;7.22;;;;;;;3.02;95.53;101888.56;4986915;28;20037;-75
2022/01/06 10:55:16;;;;;;;23.00;7.47;;;;;;;3.18;97.04;101881.03;4985038;28;20033;-75
2022/01/06 10:57:51;;;;;;;15.20;6.00;;;;;;;3.33;96.27;101890.50;4989462;28;20120;-74
2022/01/06 11:00:17;;;;;;;18.65;5.75;;;;;;;3.42;95.11;101878.63;4978979;28;20034;-74
2022/01/06 11:02:43;;;;;;;20.23;5.53;;;;;;;3.50;94.07;101874.81;4983484;28;20022;-76
2022/01/06 11:05:08;;;;;;;16.38;5.13;;;;;;;3.56;93.16;101881.81;4981118;28;20038;-76
2022/01/06 11:07:34;;;;;;;21.95;5.35;;;;;;;3.64;93.40;101879.81;4987364;28;20053;-76
2022/01/06 11:09:59;;;;;;;14.15;4.20;;;;;;;3.69;92.99;101874.31;4985141;28;20497;-74
2022/01/06 11:12:30;;;;;;;17.02;5.07;;;;;;;3.76;92.64;101870.50;4985109;28;20445;-74
2022/01/06 11:14:55;;;;;;;14.93;4.60;;;;;;;3.82;92.56;101871.25;4987786;28;20050;-76
2022/01/06 11:17:23;;;;;;;26.45;5.38;;;;;;;3.89;92.16;101871.06;4982476;28;20443;-75
2022/01/06 11:19:49;;;;;;;10.52;5.03;;;;;;;4.02;93.61;101869.78;4978465;28;20121;-73
2022/01/06 11:22:16;;;;;;;11.02;3.85;;;;;;;4.09;92.32;101876.75;4986588;28;20023;-76
2022/01/06 11:24:55;;;;;;;14.88;4.82;;;;;;;4.13;92.94;101867.66;4983322;28;20427;-73